Strona główna
METAR-TAF:

METAR-TAF

Lotnisko :

Port lotniczy Cardiff

Cardiff, Walia

Szerokość geograficzna: 51-24N, Długość geograficzna: 003-21W, wysokość: 67 m

Aktualna obserwacja pogody

Raport powstał 24 minut temu, godzina 06:20 UTC
Wiatr 13 kt od północny wschód
Temperatura 15°C
Wilgotność 59%
Ciśnienie 1023 hPa
Widzialność 10 km lub więcej

METAR: EGFF 010620Z AUTO 05013KT 9999 NCD 15/07 Q1023

czas: 07:44 (06:44 UTC)

Prognoza

Raport powstał 1 godzina i 49 minut temu, godzina 04:55 UTC
Prognoza ważna od 01 godzina 06 UTC do 02 godzina 06 UTC
Wiatr 8 kt od wschodnio-północny wschód
Widzialność 10 km lub więcej
Brak chmur poniżej 1500 m i brak chmur cumulonimbus

TAF: EGFF 010455Z 0106/0206 06008KT CAVOK

Obserwacja i prognoza pogody dla ponad 4000 lotnisk (raport METAR i TAF).

Dostępne stacje oznaczono żółtymi i czerwonymi punktami na mapie.

Najedź kursorem aby zobaczyć nazwę stacji.

Kliknij aby zobaczyć obserwacje i prognozy pogody.

Aby zmienić mapę: kliknij na zielony przycisk z czarnym krzyżykiem, aby powiększyć; na zielony przycisk z myślnikiem, aby pomniejszyć; na zielone strzałki, aby przejść do map sąsiednich.


METAR-TAF: